Terminal Aerodrome Forecast
Issued by NWS

Home | Current Version | Previous Version | Text Only | Print | Product List | Glossary On
Versions: 1 2 3 4 5 6 7 8 9 10 11 12 13 14
000
FTUS42 TJSJ 152300 RRA
TAFNCM
TAF
TNCM 152342Z 1600/1624 06007KT P6SM FEW018 SCT120
     FM161430 12010KT P6SM FEW022
     FM162300 10006KT P6SM VCSH SCT018 SCT040=

USA.gov is the U.S. government's official web portal to all federal, state and local government web resources and services.